sensor_id;sensor_type;location;lat;lon;timestamp;pressure;altitude;pressure_sealevel;temperature;humidity
21102;BME280;10709;49.006;12.100;2023-05-03T00:00:29;48800.88;;;-146.00;77.42
21102;BME280;10709;49.006;12.100;2023-05-03T00:02:56;48832.22;;;-146.00;76.65
21102;BME280;10709;49.006;12.100;2023-05-03T00:05:25;48800.88;;;-146.00;76.66
21102;BME280;10709;49.006;12.100;2023-05-03T00:07:52;48820.47;;;-146.00;76.68
21102;BME280;10709;49.006;12.100;2023-05-03T00:10:18;48820.47;;;-146.00;78.16
21102;BME280;10709;49.006;12.100;2023-05-03T00:12:45;48845.94;;;-146.00;79.37
21102;BME280;10709;49.006;12.100;2023-05-03T00:15:12;48836.16;;;-146.00;80.71
21102;BME280;10709;49.006;12.100;2023-05-03T00:17:38;48851.81;;;-146.00;82.85
21102;BME280;10709;49.006;12.100;2023-05-03T00:20:06;48887.09;;;-146.00;82.96
21102;BME280;10709;49.006;12.100;2023-05-03T00:22:33;48896.88;;;-146.00;82.45
21102;BME280;10709;49.006;12.100;2023-05-03T00:25:00;48867.50;;;-146.00;82.06
21102;BME280;10709;49.006;12.100;2023-05-03T00:27:27;48892.97;;;-146.00;81.41
21102;BME280;10709;49.006;12.100;2023-05-03T00:29:54;48879.25;;;-146.00;81.09
21102;BME280;10709;49.006;12.100;2023-05-03T00:32:21;48863.56;;;-146.00;80.53
21102;BME280;10709;49.006;12.100;2023-05-03T00:34:55;48891.00;;;-146.00;80.58
21102;BME280;10709;49.006;12.100;2023-05-03T00:37:24;48879.25;;;-146.00;80.71
21102;BME280;10709;49.006;12.100;2023-05-03T00:39:52;48845.94;;;-146.00;80.88
21102;BME280;10709;49.006;12.100;2023-05-03T00:42:18;48855.75;;;-146.00;81.48
21102;BME280;10709;49.006;12.100;2023-05-03T00:44:45;48869.44;;;-146.00;81.77
21102;BME280;10709;49.006;12.100;2023-05-03T00:47:12;48883.16;;;-146.00;82.69
21102;BME280;10709;49.006;12.100;2023-05-03T00:49:40;48906.69;;;-146.00;83.93
21102;BME280;10709;49.006;12.100;2023-05-03T00:52:07;48930.19;;;-146.00;84.11
21102;BME280;10709;49.006;12.100;2023-05-03T00:54:34;48945.84;;;-146.00;86.87
21102;BME280;10709;49.006;12.100;2023-05-03T00:57:03;48965.44;;;-146.00;88.28
21102;BME280;10709;49.006;12.100;2023-05-03T00:59:31;48973.28;;;-146.00;86.29
21102;BME280;10709;49.006;12.100;2023-05-03T01:02:01;48953.69;;;-146.00;85.87
21102;BME280;10709;49.006;12.100;2023-05-03T01:04:28;48977.19;;;-146.00;88.97
21102;BME280;10709;49.006;12.100;2023-05-03T01:07:14;48947.81;;;-146.00;88.39
21102;BME280;10709;49.006;12.100;2023-05-03T01:09:54;48953.69;;;-146.00;86.35
21102;BME280;10709;49.006;12.100;2023-05-03T01:18:30;48934.09;;;-146.00;85.39
21102;BME280;10709;49.006;12.100;2023-05-03T01:20:59;48932.13;;;-146.00;84.13
21102;BME280;10709;49.006;12.100;2023-05-03T01:23:51;48898.84;;;-146.00;84.61
21102;BME280;10709;49.006;12.100;2023-05-03T01:26:24;48953.69;;;-146.00;85.25
21102;BME280;10709;49.006;12.100;2023-05-03T01:28:53;48945.84;;;-146.00;84.72
21102;BME280;10709;49.006;12.100;2023-05-03T01:34:20;48953.69;;;-146.00;85.92
21102;BME280;10709;49.006;12.100;2023-05-03T01:36:52;48959.56;;;-146.00;86.38
21102;BME280;10709;49.006;12.100;2023-05-03T01:39:25;48941.94;;;-146.00;86.40
21102;BME280;10709;49.006;12.100;2023-05-03T01:41:56;48926.25;;;-146.00;85.42
21102;BME280;10709;49.006;12.100;2023-05-03T01:44:24;48955.66;;;-146.00;85.85
21102;BME280;10709;49.006;12.100;2023-05-03T01:46:51;48961.53;;;-146.00;86.85
21102;BME280;10709;49.006;12.100;2023-05-03T01:49:18;48977.19;;;-146.00;87.97
21102;BME280;10709;49.006;12.100;2023-05-03T01:51:44;48953.69;;;-146.00;88.19
21102;BME280;10709;49.006;12.100;2023-05-03T01:54:11;48969.38;;;-146.00;88.45
21102;BME280;10709;49.006;12.100;2023-05-03T01:56:38;48977.19;;;-146.00;87.82
21102;BME280;10709;49.006;12.100;2023-05-03T01:59:08;48945.84;;;-146.00;86.21
21102;BME280;10709;49.006;12.100;2023-05-03T02:01:34;48912.56;;;-146.00;85.46
21102;BME280;10709;49.006;12.100;2023-05-03T02:04:01;48941.94;;;-146.00;85.42
21102;BME280;10709;49.006;12.100;2023-05-03T02:06:28;48939.97;;;-146.00;85.49
21102;BME280;10709;49.006;12.100;2023-05-03T02:08:55;48945.84;;;-146.00;87.35
21102;BME280;10709;49.006;12.100;2023-05-03T02:11:22;48961.53;;;-146.00;88.67
21102;BME280;10709;49.006;12.100;2023-05-03T02:13:49;48988.94;;;-146.00;87.91
21102;BME280;10709;49.006;12.100;2023-05-03T02:16:18;48945.84;;;-146.00;86.66
21102;BME280;10709;49.006;12.100;2023-05-03T02:18:45;48957.59;;;-146.00;85.02
21102;BME280;10709;49.006;12.100;2023-05-03T02:21:12;48934.09;;;-146.00;85.15
21102;BME280;10709;49.006;12.100;2023-05-03T02:23:39;48953.69;;;-146.00;85.10
21102;BME280;10709;49.006;12.100;2023-05-03T02:26:07;48961.53;;;-146.00;85.03
21102;BME280;10709;49.006;12.100;2023-05-03T02:28:34;48926.25;;;-146.00;84.75
21102;BME280;10709;49.006;12.100;2023-05-03T02:31:00;48938.03;;;-146.00;84.64
21102;BME280;10709;49.006;12.100;2023-05-03T02:33:27;48930.19;;;-146.00;84.64
21102;BME280;10709;49.006;12.100;2023-05-03T02:35:53;48934.09;;;-146.00;85.07
21102;BME280;10709;49.006;12.100;2023-05-03T02:38:20;48949.78;;;-146.00;84.59
21102;BME280;10709;49.006;12.100;2023-05-03T02:40:47;48938.03;;;-146.00;85.02
21102;BME280;10709;49.006;12.100;2023-05-03T02:43:14;48949.78;;;-146.00;87.31
21102;BME280;10709;49.006;12.100;2023-05-03T02:45:42;48983.06;;;-146.00;88.02
21102;BME280;10709;49.006;12.100;2023-05-03T02:48:09;48981.13;;;-146.00;87.61
21102;BME280;10709;49.006;12.100;2023-05-03T02:50:37;48928.22;;;-146.00;87.27
21102;BME280;10709;49.006;12.100;2023-05-03T02:53:04;48965.44;;;-146.00;86.83
21102;BME280;10709;49.006;12.100;2023-05-03T02:55:31;48961.53;;;-146.00;87.40
21102;BME280;10709;49.006;12.100;2023-05-03T02:57:58;48945.84;;;-146.00;88.10
21102;BME280;10709;49.006;12.100;2023-05-03T03:00:25;48965.44;;;-146.00;88.10
21102;BME280;10709;49.006;12.100;2023-05-03T03:02:52;48969.38;;;-146.00;88.72
21102;BME280;10709;49.006;12.100;2023-05-03T03:05:19;49006.59;;;-146.00;88.13
21102;BME280;10709;49.006;12.100;2023-05-03T03:07:46;48965.44;;;-146.00;87.52
21102;BME280;10709;49.006;12.100;2023-05-03T03:10:12;48969.38;;;-146.00;87.44
21102;BME280;10709;49.006;12.100;2023-05-03T03:12:39;48949.78;;;-146.00;87.47
21102;BME280;10709;49.006;12.100;2023-05-03T03:15:06;48977.19;;;-146.00;87.25
21102;BME280;10709;49.006;12.100;2023-05-03T03:17:33;48938.03;;;-146.00;87.26
21102;BME280;10709;49.006;12.100;2023-05-03T03:19:59;48957.59;;;-146.00;88.04
21102;BME280;10709;49.006;12.100;2023-05-03T03:22:31;48985.03;;;-146.00;89.92
21102;BME280;10709;49.006;12.100;2023-05-03T03:24:58;48959.56;;;-146.00;89.49
21102;BME280;10709;49.006;12.100;2023-05-03T03:27:24;48963.50;;;-146.00;88.67
21102;BME280;10709;49.006;12.100;2023-05-03T03:29:51;49000.72;;;-146.00;89.27
21102;BME280;10709;49.006;12.100;2023-05-03T03:32:18;48963.50;;;-146.00;89.26
21102;BME280;10709;49.006;12.100;2023-05-03T03:34:44;48985.03;;;-146.00;90.44
21102;BME280;10709;49.006;12.100;2023-05-03T03:37:11;48967.41;;;-146.00;89.76
21102;BME280;10709;49.006;12.100;2023-05-03T03:39:38;48957.59;;;-146.00;88.95
21102;BME280;10709;49.006;12.100;2023-05-03T03:42:06;48965.44;;;-146.00;89.08
21102;BME280;10709;49.006;12.100;2023-05-03T03:44:33;48988.94;;;-146.00;89.83
21102;BME280;10709;49.006;12.100;2023-05-03T03:47:00;48975.25;;;-146.00;89.43
21102;BME280;10709;49.006;12.100;2023-05-03T03:49:26;48973.28;;;-146.00;90.57
21102;BME280;10709;49.006;12.100;2023-05-03T03:51:53;48967.41;;;-146.00;89.33
21102;BME280;10709;49.006;12.100;2023-05-03T03:54:21;48945.84;;;-146.00;88.69
21102;BME280;10709;49.006;12.100;2023-05-03T03:56:48;48969.38;;;-146.00;88.92
21102;BME280;10709;49.006;12.100;2023-05-03T03:59:14;48977.19;;;-146.00;88.87
21102;BME280;10709;49.006;12.100;2023-05-03T04:01:41;48953.69;;;-146.00;89.71
21102;BME280;10709;49.006;12.100;2023-05-03T04:04:07;48975.25;;;-146.00;89.40
21102;BME280;10709;49.006;12.100;2023-05-03T04:06:34;48945.84;;;-146.00;88.73
21102;BME280;10709;49.006;12.100;2023-05-03T04:09:01;48957.59;;;-146.00;88.56
21102;BME280;10709;49.006;12.100;2023-05-03T04:11:28;48961.53;;;-146.00;88.92
21102;BME280;10709;49.006;12.100;2023-05-03T04:13:55;48953.69;;;-146.00;91.85
21102;BME280;10709;49.006;12.100;2023-05-03T04:16:21;48977.19;;;-146.00;92.48
21102;BME280;10709;49.006;12.100;2023-05-03T04:18:48;48961.53;;;-146.00;91.49
21102;BME280;10709;49.006;12.100;2023-05-03T04:21:15;48957.59;;;-146.00;90.22
21102;BME280;10709;49.006;12.100;2023-05-03T04:23:42;48957.59;;;-146.00;90.05
21102;BME280;10709;49.006;12.100;2023-05-03T04:26:09;48969.38;;;-146.00;89.79
21102;BME280;10709;49.006;12.100;2023-05-03T04:28:52;48992.88;;;-146.00;90.50
21102;BME280;10709;49.006;12.100;2023-05-03T04:31:19;48938.03;;;-146.00;90.46
21102;BME280;10709;49.006;12.100;2023-05-03T04:33:47;48973.28;;;-146.00;90.65
21102;BME280;10709;49.006;12.100;2023-05-03T04:36:14;48985.03;;;-146.00;91.99
21102;BME280;10709;49.006;12.100;2023-05-03T04:38:42;48969.38;;;-146.00;92.35
21102;BME280;10709;49.006;12.100;2023-05-03T04:41:09;48981.13;;;-146.00;91.04
21102;BME280;10709;49.006;12.100;2023-05-03T04:43:39;48977.19;;;-146.00;91.02
21102;BME280;10709;49.006;12.100;2023-05-03T04:46:06;48979.16;;;-146.00;90.38
21102;BME280;10709;49.006;12.100;2023-05-03T04:48:33;48961.53;;;-146.00;89.90
21102;BME280;10709;49.006;12.100;2023-05-03T04:51:02;48941.94;;;-146.00;89.29
21102;BME280;10709;49.006;12.100;2023-05-03T04:53:29;48969.38;;;-146.00;88.56
21102;BME280;10709;49.006;12.100;2023-05-03T04:55:56;48965.44;;;-146.00;88.62
21102;BME280;10709;49.006;12.100;2023-05-03T04:58:22;48957.59;;;-146.00;88.76
21102;BME280;10709;49.006;12.100;2023-05-03T05:00:49;48949.78;;;-146.00;89.38
21102;BME280;10709;49.006;12.100;2023-05-03T05:03:16;48957.59;;;-146.00;89.72
21102;BME280;10709;49.006;12.100;2023-05-03T05:05:46;48996.78;;;-146.00;89.65
21102;BME280;10709;49.006;12.100;2023-05-03T05:08:13;48961.53;;;-146.00;89.23
21102;BME280;10709;49.006;12.100;2023-05-03T05:10:40;48957.59;;;-146.00;89.79
21102;BME280;10709;49.006;12.100;2023-05-03T05:13:07;48981.13;;;-146.00;91.63
21102;BME280;10709;49.006;12.100;2023-05-03T05:15:33;48945.84;;;-146.00;91.37
21102;BME280;10709;49.006;12.100;2023-05-03T05:18:00;48961.53;;;-146.00;90.06
21102;BME280;10709;49.006;12.100;2023-05-03T05:20:26;48961.53;;;-146.00;88.90
21102;BME280;10709;49.006;12.100;2023-05-03T05:22:53;48969.38;;;-146.00;88.54
21102;BME280;10709;49.006;12.100;2023-05-03T05:25:19;49008.53;;;-146.00;88.73
21102;BME280;10709;49.006;12.100;2023-05-03T05:27:46;48985.03;;;-146.00;90.22
21102;BME280;10709;49.006;12.100;2023-05-03T05:30:13;48969.38;;;-146.00;90.65
21102;BME280;10709;49.006;12.100;2023-05-03T05:32:40;48992.88;;;-146.00;88.04
21102;BME280;10709;49.006;12.100;2023-05-03T05:35:07;48934.09;;;-146.00;86.47
21102;BME280;10709;49.006;12.100;2023-05-03T05:37:34;48938.03;;;-146.00;86.41
21102;BME280;10709;49.006;12.100;2023-05-03T05:40:01;48918.44;;;-146.00;85.61
21102;BME280;10709;49.006;12.100;2023-05-03T05:42:29;48939.97;;;-146.00;86.19
21102;BME280;10709;49.006;12.100;2023-05-03T05:44:56;48941.94;;;-146.00;85.54
21102;BME280;10709;49.006;12.100;2023-05-03T05:47:23;48906.69;;;-146.00;82.69
21102;BME280;10709;49.006;12.100;2023-05-03T05:49:52;48906.69;;;-146.00;80.31
21102;BME280;10709;49.006;12.100;2023-05-03T05:52:19;48871.41;;;-146.00;80.27
21102;BME280;10709;49.006;12.100;2023-05-03T05:54:45;48836.16;;;-146.00;78.86
21102;BME280;10709;49.006;12.100;2023-05-03T05:57:12;48836.16;;;-146.00;77.29
21102;BME280;10709;49.006;12.100;2023-05-03T05:59:39;48847.91;;;-146.00;77.14
21102;BME280;10709;49.006;12.100;2023-05-03T06:02:13;48832.22;;;-146.00;76.51
21102;BME280;10709;49.006;12.100;2023-05-03T06:04:40;48808.72;;;-146.00;76.72
21102;BME280;10709;49.006;12.100;2023-05-03T06:07:07;48822.44;;;-146.00;76.84
21102;BME280;10709;49.006;12.100;2023-05-03T06:09:34;48847.91;;;-146.00;78.37
21102;BME280;10709;49.006;12.100;2023-05-03T06:12:00;48863.56;;;-146.00;78.56
21102;BME280;10709;49.006;12.100;2023-05-03T06:14:27;48859.66;;;-146.00;79.71
21102;BME280;10709;49.006;12.100;2023-05-03T06:16:55;48851.81;;;-146.00;80.56
21102;BME280;10709;49.006;12.100;2023-05-03T06:19:21;48869.44;;;-146.00;80.71
21102;BME280;10709;49.006;12.100;2023-05-03T06:21:50;48883.16;;;-146.00;80.01
21102;BME280;10709;49.006;12.100;2023-05-03T06:24:19;48844.00;;;-146.00;77.58
21102;BME280;10709;49.006;12.100;2023-05-03T06:26:47;48845.94;;;-146.00;76.48
21102;BME280;10709;49.006;12.100;2023-05-03T06:29:14;48824.41;;;-146.00;76.70
21102;BME280;10709;49.006;12.100;2023-05-03T06:31:41;48845.94;;;-146.00;76.79
21102;BME280;10709;49.006;12.100;2023-05-03T06:34:08;48828.31;;;-146.00;78.16
21102;BME280;10709;49.006;12.100;2023-05-03T06:36:35;48828.31;;;-146.00;77.75
21102;BME280;10709;49.006;12.100;2023-05-03T06:39:03;48808.72;;;-146.00;76.19
21102;BME280;10709;49.006;12.100;2023-05-03T06:41:30;48789.13;;;-146.00;74.87
21102;BME280;10709;49.006;12.100;2023-05-03T06:43:59;48781.31;;;-146.00;74.47
21102;BME280;10709;49.006;12.100;2023-05-03T06:46:26;48796.97;;;-146.00;73.89
21102;BME280;10709;49.006;12.100;2023-05-03T06:48:53;48769.53;;;-146.00;73.05
21102;BME280;10709;49.006;12.100;2023-05-03T06:51:23;48781.31;;;-146.00;73.73
21102;BME280;10709;49.006;12.100;2023-05-03T06:53:54;48785.22;;;-146.00;74.85
21102;BME280;10709;49.006;12.100;2023-05-03T06:56:22;48789.13;;;-146.00;75.65
21102;BME280;10709;49.006;12.100;2023-05-03T06:58:49;48789.13;;;-146.00;75.87
21102;BME280;10709;49.006;12.100;2023-05-03T07:01:20;48791.09;;;-146.00;75.73
21102;BME280;10709;49.006;12.100;2023-05-03T07:03:48;48820.47;;;-146.00;75.47
21102;BME280;10709;49.006;12.100;2023-05-03T07:06:15;48796.97;;;-146.00;75.02
21102;BME280;10709;49.006;12.100;2023-05-03T07:08:43;48810.69;;;-146.00;75.24
21102;BME280;10709;49.006;12.100;2023-05-03T07:11:10;48785.22;;;-146.00;75.33
21102;BME280;10709;49.006;12.100;2023-05-03T07:13:37;48796.97;;;-146.00;75.41
21102;BME280;10709;49.006;12.100;2023-05-03T07:16:04;48816.56;;;-146.00;76.54
21102;BME280;10709;49.006;12.100;2023-05-03T07:18:31;48791.09;;;-146.00;75.76
21102;BME280;10709;49.006;12.100;2023-05-03T07:20:57;48783.25;;;-146.00;76.13
21102;BME280;10709;49.006;12.100;2023-05-03T07:23:26;48789.13;;;-146.00;74.94
21102;BME280;10709;49.006;12.100;2023-05-03T07:25:53;48796.97;;;-146.00;74.89
21102;BME280;10709;49.006;12.100;2023-05-03T07:28:20;48777.38;;;-146.00;73.31
21102;BME280;10709;49.006;12.100;2023-05-03T07:30:48;48753.88;;;-146.00;73.50
21102;BME280;10709;49.006;12.100;2023-05-03T07:33:16;48771.50;;;-146.00;72.67
21102;BME280;10709;49.006;12.100;2023-05-03T07:35:46;48755.84;;;-146.00;71.71
21102;BME280;10709;49.006;12.100;2023-05-03T07:38:14;48755.84;;;-146.00;70.12
21102;BME280;10709;49.006;12.100;2023-05-03T07:40:41;48761.72;;;-146.00;70.84
21102;BME280;10709;49.006;12.100;2023-05-03T07:43:08;48769.53;;;-146.00;70.96
21102;BME280;10709;49.006;12.100;2023-05-03T07:45:36;48773.47;;;-146.00;70.70
21102;BME280;10709;49.006;12.100;2023-05-03T07:48:03;48773.47;;;-146.00;71.03
21102;BME280;10709;49.006;12.100;2023-05-03T07:50:31;48769.53;;;-146.00;70.87
21102;BME280;10709;49.006;12.100;2023-05-03T07:52:57;48781.31;;;-146.00;70.48
21102;BME280;10709;49.006;12.100;2023-05-03T07:55:25;48757.78;;;-146.00;70.41
21102;BME280;10709;49.006;12.100;2023-05-03T07:57:52;48781.31;;;-146.00;71.01
21102;BME280;10709;49.006;12.100;2023-05-03T08:00:24;48769.53;;;-146.00;70.50
21102;BME280;10709;49.006;12.100;2023-05-03T08:02:52;48759.75;;;-146.00;71.07
21102;BME280;10709;49.006;12.100;2023-05-03T08:05:20;48757.78;;;-146.00;70.59
21102;BME280;10709;49.006;12.100;2023-05-03T08:07:47;48789.13;;;-146.00;71.00
21102;BME280;10709;49.006;12.100;2023-05-03T08:10:13;48773.47;;;-146.00;70.79
21102;BME280;10709;49.006;12.100;2023-05-03T08:12:41;48765.63;;;-146.00;71.12
21102;BME280;10709;49.006;12.100;2023-05-03T08:15:07;48785.22;;;-146.00;71.39
21102;BME280;10709;49.006;12.100;2023-05-03T08:17:39;48777.38;;;-146.00;69.64
21102;BME280;10709;49.006;12.100;2023-05-03T08:20:07;48765.63;;;-146.00;69.61
21102;BME280;10709;49.006;12.100;2023-05-03T08:22:34;48796.97;;;-146.00;69.32
21102;BME280;10709;49.006;12.100;2023-05-03T08:25:04;48753.88;;;-146.00;69.29
21102;BME280;10709;49.006;12.100;2023-05-03T08:27:31;48765.63;;;-146.00;69.48
21102;BME280;10709;49.006;12.100;2023-05-03T08:29:57;48773.47;;;-146.00;69.09
21102;BME280;10709;49.006;12.100;2023-05-03T08:32:26;48800.88;;;-146.00;69.19
21102;BME280;10709;49.006;12.100;2023-05-03T08:34:54;48779.34;;;-146.00;69.36
21102;BME280;10709;49.006;12.100;2023-05-03T08:37:22;48767.59;;;-146.00;68.85
21102;BME280;10709;49.006;12.100;2023-05-03T08:39:48;48793.06;;;-146.00;68.00
21102;BME280;10709;49.006;12.100;2023-05-03T08:42:15;48746.03;;;-146.00;68.82
21102;BME280;10709;49.006;12.100;2023-05-03T08:44:46;48785.22;;;-146.00;68.61
21102;BME280;10709;49.006;12.100;2023-05-03T08:47:16;48779.34;;;-146.00;68.75
21102;BME280;10709;49.006;12.100;2023-05-03T08:49:43;48769.53;;;-146.00;67.73
21102;BME280;10709;49.006;12.100;2023-05-03T08:52:13;48779.34;;;-146.00;67.04
21102;BME280;10709;49.006;12.100;2023-05-03T08:54:39;48761.72;;;-146.00;67.55
21102;BME280;10709;49.006;12.100;2023-05-03T08:57:13;48802.84;;;-146.00;67.49
21102;BME280;10709;49.006;12.100;2023-05-03T08:59:49;48755.84;;;-146.00;66.36
21102;BME280;10709;49.006;12.100;2023-05-03T09:02:17;48765.63;;;-146.00;66.11
21102;BME280;10709;49.006;12.100;2023-05-03T09:04:45;48777.38;;;-146.00;66.21
21102;BME280;10709;49.006;12.100;2023-05-03T09:07:12;48765.63;;;-146.00;66.61
21102;BME280;10709;49.006;12.100;2023-05-03T09:09:42;48789.13;;;-146.00;67.67
21102;BME280;10709;49.006;12.100;2023-05-03T09:12:36;48742.13;;;-146.00;67.04
21102;BME280;10709;49.006;12.100;2023-05-03T09:15:04;48796.97;;;-146.00;67.63
21102;BME280;10709;49.006;12.100;2023-05-03T09:17:31;48777.38;;;-146.00;67.30
21102;BME280;10709;49.006;12.100;2023-05-03T09:19:59;48769.53;;;-146.00;66.93
21102;BME280;10709;49.006;12.100;2023-05-03T09:22:29;48746.03;;;-146.00;65.89
21102;BME280;10709;49.006;12.100;2023-05-03T09:24:59;48761.72;;;-146.00;65.55
21102;BME280;10709;49.006;12.100;2023-05-03T09:27:26;48789.13;;;-146.00;66.23
21102;BME280;10709;49.006;12.100;2023-05-03T09:29:53;48793.06;;;-146.00;66.74
21102;BME280;10709;49.006;12.100;2023-05-03T09:32:21;48779.34;;;-146.00;65.83
21102;BME280;10709;49.006;12.100;2023-05-03T09:34:49;48738.19;;;-146.00;66.79
21102;BME280;10709;49.006;12.100;2023-05-03T09:37:16;48755.84;;;-146.00;66.45
21102;BME280;10709;49.006;12.100;2023-05-03T09:39:44;48808.72;;;-146.00;66.25
21102;BME280;10709;49.006;12.100;2023-05-03T09:42:14;48771.50;;;-146.00;65.35
21102;BME280;10709;49.006;12.100;2023-05-03T09:44:49;48777.38;;;-146.00;64.02
21102;BME280;10709;49.006;12.100;2023-05-03T09:47:20;48775.41;;;-146.00;64.35
21102;BME280;10709;49.006;12.100;2023-05-03T09:49:47;48800.88;;;-146.00;64.54
21102;BME280;10709;49.006;12.100;2023-05-03T09:52:14;48769.53;;;-146.00;63.72
21102;BME280;10709;49.006;12.100;2023-05-03T09:54:41;48777.38;;;-146.00;65.06
21102;BME280;10709;49.006;12.100;2023-05-03T09:57:08;48759.75;;;-146.00;63.34
21102;BME280;10709;49.006;12.100;2023-05-03T09:59:37;48765.63;;;-146.00;64.35
21102;BME280;10709;49.006;12.100;2023-05-03T10:02:06;48753.88;;;-146.00;64.28
21102;BME280;10709;49.006;12.100;2023-05-03T10:04:40;48775.41;;;-146.00;64.59
21102;BME280;10709;49.006;12.100;2023-05-03T10:07:13;48759.75;;;-146.00;64.16
21102;BME280;10709;49.006;12.100;2023-05-03T10:09:43;48771.50;;;-146.00;63.58
21102;BME280;10709;49.006;12.100;2023-05-03T10:12:11;48746.03;;;-146.00;63.60
21102;BME280;10709;49.006;12.100;2023-05-03T10:14:40;48738.19;;;-146.00;63.71
21102;BME280;10709;49.006;12.100;2023-05-03T10:19:48;48785.22;;;-146.00;64.07
21102;BME280;10709;49.006;12.100;2023-05-03T10:22:16;48789.13;;;-146.00;64.71
21102;BME280;10709;49.006;12.100;2023-05-03T10:32:54;48753.88;;;-146.00;63.32
21102;BME280;10709;49.006;12.100;2023-05-03T10:35:25;48773.47;;;-146.00;62.93
21102;BME280;10709;49.006;12.100;2023-05-03T10:37:54;48773.47;;;-146.00;62.52
21102;BME280;10709;49.006;12.100;2023-05-03T10:40:40;48785.22;;;-146.00;61.63
21102;BME280;10709;49.006;12.100;2023-05-03T10:46:01;48779.34;;;-146.00;61.21
21102;BME280;10709;49.006;12.100;2023-05-03T10:48:28;48753.88;;;-146.00;60.68
21102;BME280;10709;49.006;12.100;2023-05-03T10:50:57;48775.41;;;-146.00;61.04
21102;BME280;10709;49.006;12.100;2023-05-03T10:53:44;48746.03;;;-146.00;61.39
21102;BME280;10709;49.006;12.100;2023-05-03T10:56:12;48765.63;;;-146.00;61.10
21102;BME280;10709;49.006;12.100;2023-05-03T10:58:45;48777.38;;;-146.00;60.39
21102;BME280;10709;49.006;12.100;2023-05-03T11:01:15;48769.53;;;-146.00;61.10
21102;BME280;10709;49.006;12.100;2023-05-03T11:06:35;48763.66;;;-146.00;60.20
21102;BME280;10709;49.006;12.100;2023-05-03T11:09:04;48773.47;;;-146.00;60.41
21102;BME280;10709;49.006;12.100;2023-05-03T11:11:36;48757.78;;;-146.00;61.12
21102;BME280;10709;49.006;12.100;2023-05-03T11:14:05;48765.63;;;-146.00;61.01
21102;BME280;10709;49.006;12.100;2023-05-03T11:16:32;48793.06;;;-146.00;60.36
21102;BME280;10709;49.006;12.100;2023-05-03T11:19:00;48757.78;;;-146.00;59.95
21102;BME280;10709;49.006;12.100;2023-05-03T11:21:27;48738.19;;;-146.00;59.17
21102;BME280;10709;49.006;12.100;2023-05-03T11:23:57;48769.53;;;-146.00;59.76
21102;BME280;10709;49.006;12.100;2023-05-03T11:26:24;48769.53;;;-146.00;59.62
21102;BME280;10709;49.006;12.100;2023-05-03T11:28:52;48757.78;;;-146.00;58.19
21102;BME280;10709;49.006;12.100;2023-05-03T11:31:20;48761.72;;;-146.00;58.25
21102;BME280;10709;49.006;12.100;2023-05-03T11:33:48;48765.63;;;-146.00;57.51
21102;BME280;10709;49.006;12.100;2023-05-03T11:36:16;48746.03;;;-146.00;58.49
21102;BME280;10709;49.006;12.100;2023-05-03T11:38:43;48757.78;;;-146.00;57.95
21102;BME280;10709;49.006;12.100;2023-05-03T11:41:12;48753.88;;;-146.00;56.86
21102;BME280;10709;49.006;12.100;2023-05-03T11:43:40;48738.19;;;-146.00;57.11
21102;BME280;10709;49.006;12.100;2023-05-03T11:46:08;48789.13;;;-146.00;57.31
21102;BME280;10709;49.006;12.100;2023-05-03T11:48:36;48757.78;;;-146.00;56.16
21102;BME280;10709;49.006;12.100;2023-05-03T11:51:07;48761.72;;;-146.00;57.23
21102;BME280;10709;49.006;12.100;2023-05-03T11:53:37;48734.28;;;-146.00;56.62
21102;BME280;10709;49.006;12.100;2023-05-03T11:56:11;48746.03;;;-146.00;56.71
21102;BME280;10709;49.006;12.100;2023-05-03T11:58:49;48767.59;;;-146.00;55.56
21102;BME280;10709;49.006;12.100;2023-05-03T12:01:21;48757.78;;;-146.00;56.87
21102;BME280;10709;49.006;12.100;2023-05-03T12:03:55;48753.88;;;-146.00;54.71
21102;BME280;10709;49.006;12.100;2023-05-03T12:06:23;48759.75;;;-146.00;55.20
21102;BME280;10709;49.006;12.100;2023-05-03T12:08:52;48773.47;;;-146.00;55.25
21102;BME280;10709;49.006;12.100;2023-05-03T12:11:20;48765.63;;;-146.00;55.32
21102;BME280;10709;49.006;12.100;2023-05-03T12:13:59;48759.75;;;-146.00;54.76
21102;BME280;10709;49.006;12.100;2023-05-03T12:16:27;48773.47;;;-146.00;55.17
21102;BME280;10709;49.006;12.100;2023-05-03T12:18:55;48761.72;;;-146.00;53.26
21102;BME280;10709;49.006;12.100;2023-05-03T12:21:44;48793.06;;;-146.00;52.90
21102;BME280;10709;49.006;12.100;2023-05-03T12:24:23;48765.63;;;-146.00;51.98
21102;BME280;10709;49.006;12.100;2023-05-03T12:26:54;48761.72;;;-146.00;52.68
21102;BME280;10709;49.006;12.100;2023-05-03T12:29:22;48761.72;;;-146.00;53.56
21102;BME280;10709;49.006;12.100;2023-05-03T12:31:50;48757.78;;;-146.00;51.86
21102;BME280;10709;49.006;12.100;2023-05-03T12:34:18;48765.63;;;-146.00;50.96
21102;BME280;10709;49.006;12.100;2023-05-03T12:37:01;48769.53;;;-146.00;52.49
21102;BME280;10709;49.006;12.100;2023-05-03T12:39:31;48763.66;;;-146.00;52.09
21102;BME280;10709;49.006;12.100;2023-05-03T12:41:59;48775.41;;;-146.00;52.79
21102;BME280;10709;49.006;12.100;2023-05-03T12:44:29;48746.03;;;-146.00;52.93
21102;BME280;10709;49.006;12.100;2023-05-03T12:47:01;48740.16;;;-146.00;52.74
21102;BME280;10709;49.006;12.100;2023-05-03T12:49:29;48746.03;;;-146.00;52.36
21102;BME280;10709;49.006;12.100;2023-05-03T12:51:56;48746.03;;;-146.00;52.00
21102;BME280;10709;49.006;12.100;2023-05-03T12:54:28;48757.78;;;-146.00;51.64
21102;BME280;10709;49.006;12.100;2023-05-03T12:57:00;48775.41;;;-146.00;51.63
21102;BME280;10709;49.006;12.100;2023-05-03T12:59:38;48742.13;;;-146.00;51.21
21102;BME280;10709;49.006;12.100;2023-05-03T13:02:11;48765.63;;;-146.00;52.32